Time;durP1;ratioP1;P1;durP2;ratioP2;P2;SDS_P1;SDS_P2;PMS_P1;PMS_P2;Temp;Humidity;BMP_temperature;BMP_pressure;BME280_temperature;BME280_humidity;BME280_pressure;Samples;Min_cycle;Max_cycle;Signal;HPM_P1;HPM_P2
2023/07/18 00:00:18;;;;;;;10.38;4.47;;;25.50;99.90;;;;;;7404151;19;19926;-75
2023/07/18 00:02:44;;;;;;;10.50;4.70;;;25.40;99.90;;;;;;7404927;19;20343;-75
2023/07/18 00:05:14;;;;;;;11.65;4.57;;;25.40;99.90;;;;;;7382152;19;19915;-76
2023/07/18 00:07:41;;;;;;;11.85;4.30;;;25.30;99.90;;;;;;7407481;19;19915;-76
2023/07/18 00:10:11;;;;;;;11.73;4.35;;;25.30;99.90;;;;;;7404159;19;20307;-75
2023/07/18 00:12:39;;;;;;;10.48;4.60;;;25.20;99.90;;;;;;7406127;19;20534;-75
2023/07/18 00:15:06;;;;;;;13.68;4.38;;;25.20;99.90;;;;;;7374793;19;19910;-76
2023/07/18 00:17:33;;;;;;;13.27;4.85;;;25.30;99.90;;;;;;7404061;19;20255;-76
2023/07/18 00:20:13;;;;;;;10.68;4.75;;;25.20;99.90;;;;;;7404381;19;19928;-76
2023/07/18 00:22:47;;;;;;;11.50;4.65;;;25.20;99.90;;;;;;7401952;19;19922;-75
2023/07/18 00:25:16;;;;;;;10.60;5.25;;;25.10;99.90;;;;;;7404829;19;19912;-76
2023/07/18 00:27:43;;;;;;;10.25;4.72;;;25.10;99.90;;;;;;7407169;19;20049;-76
2023/07/18 00:30:12;;;;;;;8.40;4.28;;;25.00;99.90;;;;;;7401789;19;19914;-76
2023/07/18 00:32:39;;;;;;;10.05;4.40;;;25.10;99.90;;;;;;7408470;19;19919;-76
2023/07/18 00:35:05;;;;;;;10.20;5.10;;;25.00;99.90;;;;;;7403917;19;19918;-76
2023/07/18 00:37:32;;;;;;;14.40;5.03;;;25.10;99.90;;;;;;7403268;19;20243;-75
2023/07/18 00:39:58;;;;;;;10.32;4.82;;;25.00;99.90;;;;;;7400775;19;19919;-75
2023/07/18 00:42:24;;;;;;;12.90;4.70;;;25.00;99.90;;;;;;7404542;19;19952;-76
2023/07/18 00:44:51;;;;;;;9.65;4.38;;;25.00;99.90;;;;;;7406043;19;19918;-76
2023/07/18 00:47:18;;;;;;;8.18;4.68;;;24.90;99.90;;;;;;7403559;19;19923;-76
2023/07/18 00:49:45;;;;;;;8.75;5.03;;;25.00;99.90;;;;;;7405193;19;20262;-75
2023/07/18 00:52:12;;;;;;;7.63;3.70;;;24.80;99.90;;;;;;7404088;19;19914;-76
2023/07/18 00:54:39;;;;;;;9.23;3.95;;;24.80;99.90;;;;;;7373689;19;21402;-76
2023/07/18 00:57:07;;;;;;;9.35;4.25;;;24.80;99.90;;;;;;7402355;19;19922;-75
2023/07/18 00:59:34;;;;;;;7.55;3.85;;;24.80;99.90;;;;;;7404418;19;19926;-76
2023/07/18 01:02:02;;;;;;;7.60;4.18;;;24.80;99.90;;;;;;7404993;19;19918;-76
2023/07/18 01:04:28;;;;;;;7.32;4.22;;;24.80;99.90;;;;;;7400920;19;20338;-77
2023/07/18 01:06:55;;;;;;;11.10;4.13;;;24.80;99.90;;;;;;7405449;19;19915;-76
2023/07/18 01:09:21;;;;;;;9.13;4.55;;;24.70;99.90;;;;;;7403705;19;19966;-76
2023/07/18 01:11:47;;;;;;;8.93;4.05;;;24.70;99.90;;;;;;7401968;19;19936;-75
2023/07/18 01:14:13;;;;;;;11.10;4.40;;;24.70;99.90;;;;;;7400764;19;20356;-76
2023/07/18 01:16:41;;;;;;;12.23;4.07;;;24.70;99.90;;;;;;7403975;19;19923;-76
2023/07/18 01:19:07;;;;;;;8.60;3.90;;;24.70;99.90;;;;;;7401228;19;20213;-76
2023/07/18 01:21:33;;;;;;;9.40;4.40;;;24.70;99.90;;;;;;7406709;19;19921;-76
2023/07/18 01:23:59;;;;;;;8.38;3.88;;;24.70;99.90;;;;;;7401901;19;19919;-76
2023/07/18 01:26:25;;;;;;;9.20;4.20;;;24.70;99.90;;;;;;7399959;19;20398;-75
2023/07/18 01:28:51;;;;;;;11.60;4.53;;;24.70;99.80;;;;;;7375236;19;19925;-77
2023/07/18 01:31:16;;;;;;;9.55;4.15;;;24.70;99.90;;;;;;7398891;19;19910;-76
2023/07/18 01:33:43;;;;;;;10.10;4.50;;;24.60;99.90;;;;;;7404716;19;19925;-76
2023/07/18 01:36:09;;;;;;;10.20;4.40;;;24.60;99.90;;;;;;7404396;19;19922;-75
2023/07/18 01:38:36;;;;;;;10.48;4.78;;;24.60;99.90;;;;;;7404890;19;20026;-75
2023/07/18 01:41:02;;;;;;;10.13;4.65;;;24.60;99.90;;;;;;7402938;19;19929;-76
2023/07/18 01:43:28;;;;;;;9.57;4.50;;;24.60;99.90;;;;;;7403309;19;19986;-75
2023/07/18 01:46:00;;;;;;;12.52;4.75;;;24.60;99.90;;;;;;7404539;19;20359;-76
2023/07/18 01:48:26;;;;;;;9.23;4.50;;;24.60;99.90;;;;;;7402022;19;19922;-76
2023/07/18 01:50:53;;;;;;;10.02;4.72;;;24.60;99.90;;;;;;7404665;19;19932;-75
2023/07/18 01:53:19;;;;;;;8.55;4.35;;;24.60;99.90;;;;;;7402120;19;19922;-75
2023/07/18 01:55:45;;;;;;;11.90;4.65;;;24.50;99.90;;;;;;7404829;19;19954;-75
2023/07/18 01:58:10;;;;;;;11.35;4.55;;;24.50;99.90;;;;;;7400911;19;19915;-75
2023/07/18 02:00:36;;;;;;;11.05;4.75;;;24.60;99.90;;;;;;7402870;19;19915;-76
2023/07/18 02:03:02;;;;;;;11.32;4.38;;;24.50;99.90;;;;;;7381892;19;20422;-76
2023/07/18 02:05:32;;;;;;;9.98;4.78;;;24.50;99.90;;;;;;7403716;19;19910;-75
2023/07/18 02:07:58;;;;;;;9.18;4.30;;;24.50;99.90;;;;;;7403085;19;19954;-76
2023/07/18 02:10:26;;;;;;;12.60;4.55;;;24.50;99.90;;;;;;7400990;19;19921;-75
2023/07/18 02:12:53;;;;;;;10.40;4.28;;;24.50;99.90;;;;;;7383010;19;19919;-75
2023/07/18 02:15:21;;;;;;;11.98;5.05;;;24.50;99.90;;;;;;7399225;19;19998;-76
2023/07/18 02:17:47;;;;;;;9.15;4.80;;;24.50;99.90;;;;;;7402912;19;19927;-76
2023/07/18 02:20:14;;;;;;;11.98;4.68;;;24.50;99.90;;;;;;7400271;19;19914;-76
2023/07/18 02:22:43;;;;;;;8.77;4.30;;;24.50;99.90;;;;;;7401044;19;19925;-76
2023/07/18 02:25:10;;;;;;;9.07;4.38;;;24.50;99.40;;;;;;7400245;19;19939;-76
2023/07/18 02:27:39;;;;;;;11.40;4.82;;;24.60;98.80;;;;;;7402253;19;19911;-75
2023/07/18 02:30:11;;;;;;;9.95;4.32;;;24.60;98.00;;;;;;7401675;19;19967;-76
2023/07/18 02:32:38;;;;;;;11.30;4.50;;;24.50;99.20;;;;;;7402007;19;20499;-76
2023/07/18 02:35:05;;;;;;;9.48;4.32;;;24.40;99.90;;;;;;7399482;19;19938;-76
2023/07/18 02:37:31;;;;;;;12.40;5.95;;;24.40;99.90;;;;;;7399209;19;20694;-76
2023/07/18 02:39:57;;;;;;;10.48;4.72;;;24.50;99.90;;;;;;7351306;19;19921;-75
2023/07/18 02:42:23;;;;;;;11.35;4.65;;;24.50;99.90;;;;;;7402623;19;20267;-76
2023/07/18 02:44:49;;;;;;;9.15;4.28;;;24.40;99.90;;;;;;7404016;19;19921;-75
2023/07/18 02:47:14;;;;;;;8.82;4.50;;;24.50;99.90;;;;;;7401435;19;19919;-76
2023/07/18 02:49:41;;;;;;;9.65;4.05;;;24.50;99.90;;;;;;7403758;19;20779;-76
2023/07/18 02:52:07;;;;;;;;;;;24.50;99.40;;;;;;7400568;19;19954;-76
2023/07/18 02:54:33;;;;;;;11.55;4.72;;;24.50;99.80;;;;;;7401527;19;19966;-76
2023/07/18 02:57:00;;;;;;;12.45;5.47;;;24.50;99.90;;;;;;7403872;19;19961;-76
2023/07/18 02:59:26;;;;;;;10.15;4.50;;;24.50;99.90;;;;;;7402392;19;19914;-75
2023/07/18 03:01:56;;;;;;;11.70;5.25;;;24.40;99.90;;;;;;7403645;19;19926;-76
2023/07/18 03:04:23;;;;;;;9.57;5.22;;;24.50;99.90;;;;;;7400557;19;19950;-76
2023/07/18 03:06:51;;;;;;;11.98;5.18;;;24.50;99.90;;;;;;7380746;19;19933;-75
2023/07/18 03:09:17;;;;;;;13.25;5.05;;;24.40;99.90;;;;;;7398187;19;19947;-75
2023/07/18 03:11:46;;;;;;;9.10;4.85;;;24.40;99.90;;;;;;7402003;19;19950;-76
2023/07/18 03:14:12;;;;;;;11.63;4.90;;;24.40;99.90;;;;;;7400365;19;19914;-75
2023/07/18 03:16:39;;;;;;;9.07;4.53;;;24.40;99.90;;;;;;7401112;19;19938;-75
2023/07/18 03:19:05;;;;;;;;;;;24.50;99.90;;;;;;7401754;19;19911;-76
2023/07/18 03:21:31;;;;;;;9.18;4.55;;;24.60;99.90;;;;;;7403599;19;20357;-75
2023/07/18 03:23:57;;;;;;;10.65;4.82;;;24.60;99.40;;;;;;7399813;19;19907;-76
2023/07/18 03:26:23;;;;;;;9.55;4.60;;;24.60;98.80;;;;;;7396089;19;19992;-75
2023/07/18 03:28:49;;;;;;;9.82;4.22;;;24.60;98.40;;;;;;7399105;19;19925;-76
2023/07/18 03:31:15;;;;;;;9.25;4.20;;;24.60;97.50;;;;;;7398161;19;20001;-76
2023/07/18 03:33:42;;;;;;;11.30;4.53;;;24.60;97.10;;;;;;7399472;19;19941;-75
2023/07/18 03:36:08;;;;;;;8.82;4.40;;;24.60;97.20;;;;;;7398572;19;19930;-75
2023/07/18 03:38:34;;;;;;;10.05;3.72;;;24.60;96.90;;;;;;7401792;19;19934;-75
2023/07/18 03:40:59;;;;;;;8.75;4.05;;;24.60;96.80;;;;;;7400750;19;19939;-75
2023/07/18 03:43:25;;;;;;;7.80;4.00;;;24.60;96.60;;;;;;7396273;19;19922;-75
2023/07/18 03:45:54;;;;;;;11.38;4.28;;;24.60;96.20;;;;;;7401712;19;19929;-74
2023/07/18 03:48:20;;;;;;;11.82;5.22;;;24.60;96.30;;;;;;7400946;19;20015;-76
2023/07/18 03:50:46;;;;;;;;;;;24.60;95.80;;;;;;7400660;19;19918;-76
2023/07/18 03:53:12;;;;;;;14.60;5.13;;;24.50;95.30;;;;;;7397736;19;19953;-76
2023/07/18 03:55:38;;;;;;;9.35;4.35;;;24.50;95.20;;;;;;7400933;19;19938;-76
2023/07/18 03:58:04;;;;;;;9.43;4.13;;;24.50;95.20;;;;;;7400244;19;19915;-75
2023/07/18 04:00:30;;;;;;;10.70;4.22;;;24.50;95.20;;;;;;7401040;19;20561;-76
2023/07/18 04:02:57;;;;;;;10.23;4.03;;;24.50;95.30;;;;;;7400829;19;19918;-75
2023/07/18 04:05:24;;;;;;;11.18;5.05;;;24.50;95.40;;;;;;7365220;19;19938;-74
2023/07/18 04:07:51;;;;;;;10.85;6.45;;;24.50;95.40;;;;;;7398652;19;19916;-76
2023/07/18 04:10:17;;;;;;;13.02;4.85;;;24.40;95.40;;;;;;7396862;19;19922;-75
2023/07/18 04:12:43;;;;;;;10.52;4.72;;;24.40;95.60;;;;;;7400557;19;20525;-75
2023/07/18 04:15:11;;;;;;;12.10;5.22;;;24.50;95.80;;;;;;7398276;19;20312;-75
2023/07/18 04:17:38;;;;;;;8.82;4.60;;;24.50;95.70;;;;;;7400281;19;19918;-75
2023/07/18 04:20:05;;;;;;;9.18;4.47;;;24.40;95.70;;;;;;7398410;19;19967;-75
2023/07/18 04:22:32;;;;;;;11.57;4.60;;;24.40;95.80;;;;;;7398162;19;19922;-76
2023/07/18 04:24:58;;;;;;;12.05;4.70;;;24.40;95.60;;;;;;7397854;19;19929;-75
2023/07/18 04:27:26;;;;;;;10.82;4.70;;;24.50;95.40;;;;;;7398834;19;19923;-76
2023/07/18 04:29:53;;;;;;;11.20;4.40;;;24.50;95.00;;;;;;7397335;19;20018;-76
2023/07/18 04:32:19;;;;;;;8.95;4.20;;;24.40;94.70;;;;;;7396000;19;19941;-76
2023/07/18 04:34:47;;;;;;;10.93;4.75;;;24.40;94.50;;;;;;7398447;19;19911;-76
2023/07/18 04:37:13;;;;;;;10.20;4.88;;;24.30;94.30;;;;;;7394816;19;20349;-76
2023/07/18 04:39:38;;;;;;;10.45;4.35;;;24.30;94.10;;;;;;7401886;19;19935;-75
2023/07/18 04:42:05;;;;;;;10.05;4.38;;;24.30;94.00;;;;;;7403680;19;19915;-75
2023/07/18 04:44:31;;;;;;;11.40;5.63;;;24.30;94.00;;;;;;7405856;19;20469;-76
2023/07/18 04:46:57;;;;;;;11.10;4.45;;;24.30;94.60;;;;;;7404763;19;19926;-75
2023/07/18 04:49:24;;;;;;;9.23;4.57;;;24.30;95.30;;;;;;7401192;19;19998;-76
2023/07/18 04:51:51;;;;;;;11.30;4.93;;;24.40;95.80;;;;;;7404852;19;19922;-76
2023/07/18 04:54:18;;;;;;;12.70;4.95;;;24.30;96.10;;;;;;7403611;19;19918;-75
2023/07/18 04:56:44;;;;;;;10.90;5.10;;;24.30;96.40;;;;;;7402366;19;19926;-76
2023/07/18 04:59:09;;;;;;;10.02;4.63;;;24.30;96.30;;;;;;7403615;19;19914;-75
2023/07/18 05:01:36;;;;;;;11.85;4.72;;;24.40;96.10;;;;;;7407829;19;19940;-76
2023/07/18 05:04:03;;;;;;;9.20;4.80;;;24.50;95.70;;;;;;7404980;19;20260;-77
2023/07/18 05:06:29;;;;;;;12.13;5.20;;;24.50;95.60;;;;;;7405359;19;19918;-76
2023/07/18 05:08:54;;;;;;;10.70;5.05;;;24.50;95.60;;;;;;7404506;19;19921;-75
2023/07/18 05:11:20;;;;;;;11.32;4.72;;;24.50;95.30;;;;;;7404830;19;19911;-76
2023/07/18 05:13:46;;;;;;;13.20;5.20;;;24.60;95.70;;;;;;7405527;19;19919;-76
2023/07/18 05:16:12;;;;;;;11.80;4.90;;;24.60;96.20;;;;;;7403454;19;19911;-76
2023/07/18 05:18:37;;;;;;;10.70;5.20;;;24.60;96.10;;;;;;7406460;19;19931;-76
2023/07/18 05:21:03;;;;;;;10.95;5.22;;;24.70;96.30;;;;;;7381240;19;19914;-77
2023/07/18 05:23:29;;;;;;;11.20;5.88;;;24.70;96.80;;;;;;7406419;19;19931;-75
2023/07/18 05:25:56;;;;;;;13.23;5.80;;;24.80;96.80;;;;;;7405212;19;19915;-76
2023/07/18 05:28:22;;;;;;;11.73;4.72;;;24.80;97.10;;;;;;7402392;19;19923;-77
2023/07/18 05:30:49;;;;;;;14.73;5.95;;;24.80;97.40;;;;;;7406055;19;20769;-76
2023/07/18 05:33:14;;;;;;;13.43;6.30;;;24.90;97.50;;;;;;7402936;19;20237;-76
2023/07/18 05:35:40;;;;;;;12.40;6.50;;;24.90;98.20;;;;;;7404967;19;19925;-76
2023/07/18 05:38:07;;;;;;;14.00;6.55;;;25.00;98.50;;;;;;7402081;19;19915;-76
2023/07/18 05:40:33;;;;;;;16.23;6.53;;;25.00;99.10;;;;;;7405391;19;19919;-76
2023/07/18 05:42:59;;;;;;;14.70;6.70;;;25.00;99.70;;;;;;7400520;19;19938;-76
2023/07/18 05:45:25;;;;;;;11.68;6.70;;;25.00;99.90;;;;;;7401830;19;19922;-77
2023/07/18 05:47:51;;;;;;;17.55;6.72;;;25.10;99.90;;;;;;7403417;19;19970;-76
2023/07/18 05:50:17;;;;;;;12.73;6.85;;;25.10;99.90;;;;;;7400725;19;20003;-76
2023/07/18 05:52:43;;;;;;;14.00;7.40;;;25.20;99.90;;;;;;7351223;19;19935;-76
2023/07/18 05:55:09;;;;;;;14.48;6.70;;;25.20;99.90;;;;;;7373449;19;19923;-76
2023/07/18 05:57:36;;;;;;;16.38;8.18;;;25.20;99.90;;;;;;7402345;19;19959;-76
2023/07/18 06:00:05;;;;;;;16.27;8.85;;;25.30;99.90;;;;;;7407817;19;19915;-78
2023/07/18 06:02:32;;;;;;;17.38;8.02;;;25.30;99.90;;;;;;7409089;19;19914;-78
2023/07/18 06:04:59;;;;;;;15.25;8.00;;;25.30;99.90;;;;;;7407074;19;19915;-78
2023/07/18 06:07:25;;;;;;;14.15;7.18;;;25.30;99.90;;;;;;7405313;19;19919;-78
2023/07/18 06:09:52;;;;;;;14.20;8.30;;;25.40;99.90;;;;;;7406902;19;19925;-78
2023/07/18 06:12:18;;;;;;;16.55;8.70;;;25.40;99.80;;;;;;7403613;19;19952;-79
2023/07/18 06:14:44;;;;;;;15.43;7.53;;;25.40;99.90;;;;;;7408228;19;20037;-77
2023/07/18 06:17:10;;;;;;;14.13;7.63;;;25.50;99.20;;;;;;7405213;19;19918;-77
2023/07/18 06:19:36;;;;;;;15.38;8.30;;;25.60;98.80;;;;;;7408504;19;19937;-78
2023/07/18 06:22:03;;;;;;;13.13;7.97;;;25.60;98.50;;;;;;7408341;19;19907;-77
2023/07/18 06:24:32;;;;;;;16.95;8.88;;;25.70;98.30;;;;;;7406917;19;19915;-78
2023/07/18 06:26:58;;;;;;;14.57;7.53;;;25.70;97.80;;;;;;7410093;19;19921;-77
2023/07/18 06:29:24;;;;;;;18.23;8.07;;;25.80;97.60;;;;;;7414640;19;19982;-78
2023/07/18 06:31:50;;;;;;;14.52;7.50;;;25.90;97.30;;;;;;7409332;19;19919;-78
2023/07/18 06:34:17;;;;;;;15.82;6.97;;;26.00;96.80;;;;;;7381908;19;19927;-79
2023/07/18 06:36:45;;;;;;;21.23;7.25;;;26.10;96.40;;;;;;7408560;19;19946;-77
2023/07/18 06:39:11;;;;;;;16.80;6.60;;;26.10;95.50;;;;;;7405400;19;19911;-78
2023/07/18 06:41:37;;;;;;;14.45;6.80;;;26.20;95.10;;;;;;7410864;19;19919;-79
2023/07/18 06:44:05;;;;;;;15.55;6.53;;;26.30;94.50;;;;;;7406926;19;19914;-78
2023/07/18 06:46:31;;;;;;;15.23;7.38;;;26.40;94.30;;;;;;7407718;19;19925;-77
2023/07/18 06:48:57;;;;;;;14.80;6.97;;;26.60;94.10;;;;;;7407129;19;19923;-78
2023/07/18 06:51:24;;;;;;;17.25;7.70;;;26.60;93.70;;;;;;7404608;19;19918;-77
2023/07/18 06:53:49;;;;;;;15.02;8.60;;;26.70;94.20;;;;;;7408058;19;19930;-78
2023/07/18 06:56:15;;;;;;;16.38;7.30;;;26.80;94.10;;;;;;7403169;19;19918;-78
2023/07/18 06:58:41;;;;;;;15.55;7.25;;;26.90;93.80;;;;;;7408617;19;19931;-78
2023/07/18 07:01:07;;;;;;;14.38;6.93;;;26.90;93.20;;;;;;7404007;19;19926;-77
2023/07/18 07:03:33;;;;;;;15.07;7.10;;;27.00;92.90;;;;;;7410473;19;19926;-77
2023/07/18 07:05:59;;;;;;;14.82;6.68;;;27.10;92.60;;;;;;7403099;19;20251;-77
2023/07/18 07:08:25;;;;;;;17.45;7.13;;;27.10;92.30;;;;;;7405993;19;19921;-78
2023/07/18 07:11:02;;;;;;;18.65;7.35;;;27.20;91.60;;;;;;7401893;19;19917;-77
2023/07/18 07:13:28;;;;;;;15.70;6.80;;;27.20;91.30;;;;;;7402282;19;19914;-78
2023/07/18 07:15:53;;;;;;;15.43;6.88;;;27.30;90.70;;;;;;7404585;19;20556;-78
2023/07/18 07:18:19;;;;;;;13.82;7.38;;;27.30;90.20;;;;;;7406370;19;19915;-78
2023/07/18 07:20:45;;;;;;;15.38;7.05;;;27.40;90.10;;;;;;7405630;19;19906;-79
2023/07/18 07:23:11;;;;;;;15.52;7.15;;;27.40;89.40;;;;;;7404630;19;19914;-78
2023/07/18 07:25:38;;;;;;;14.85;7.40;;;27.50;89.00;;;;;;7375299;19;19911;-78
2023/07/18 07:28:04;;;;;;;13.90;7.05;;;27.70;88.40;;;;;;7407848;19;19932;-77
2023/07/18 07:30:31;;;;;;;16.92;6.88;;;27.70;87.90;;;;;;7403903;19;19998;-78
2023/07/18 07:32:58;;;;;;;15.13;6.38;;;27.80;87.50;;;;;;7403908;19;19918;-77
2023/07/18 07:35:24;;;;;;;19.27;7.30;;;27.90;86.30;;;;;;7400614;19;19910;-78
2023/07/18 07:37:51;;;;;;;13.13;6.20;;;28.00;85.70;;;;;;7403338;19;19926;-78
2023/07/18 07:40:18;;;;;;;14.15;6.78;;;28.10;84.90;;;;;;7400736;19;20513;-78
2023/07/18 07:42:46;;;;;;;16.65;6.30;;;28.10;84.90;;;;;;7403193;19;19918;-78
2023/07/18 07:45:13;;;;;;;14.48;6.47;;;28.20;84.00;;;;;;7403384;19;19943;-78
2023/07/18 07:47:39;;;;;;;14.20;6.85;;;28.30;83.20;;;;;;7401697;19;19918;-78
2023/07/18 07:50:07;;;;;;;19.00;7.82;;;28.40;83.30;;;;;;7403876;19;20011;-78
2023/07/18 07:52:33;;;;;;;15.43;7.45;;;28.40;82.70;;;;;;7405551;19;20022;-78
2023/07/18 07:54:59;;;;;;;17.20;7.82;;;28.50;82.60;;;;;;7409396;19;19925;-78
2023/07/18 07:57:25;;;;;;;;;;;28.70;82.20;;;;;;7406448;19;19922;-78
2023/07/18 07:59:51;;;;;;;15.20;7.35;;;28.80;81.80;;;;;;7383604;19;19945;-78
2023/07/18 08:02:19;;;;;;;22.88;8.10;;;28.80;81.20;;;;;;7397404;19;19933;-77
2023/07/18 08:04:46;;;;;;;18.95;8.57;;;28.90;80.40;;;;;;7404380;19;19918;-78
2023/07/18 08:07:12;;;;;;;15.82;6.40;;;29.00;80.20;;;;;;7401995;19;19928;-77
2023/07/18 08:09:38;;;;;;;15.05;7.00;;;29.10;80.00;;;;;;7404281;19;19911;-78
2023/07/18 08:12:05;;;;;;;17.17;7.22;;;29.10;79.00;;;;;;7403160;19;20334;-78
2023/07/18 08:14:37;;;;;;;15.43;8.02;;;29.20;78.80;;;;;;7408058;19;20263;-78
2023/07/18 08:17:06;;;;;;;21.48;7.20;;;29.40;78.30;;;;;;7407551;19;19921;-78
2023/07/18 08:19:34;;;;;;;15.88;6.45;;;29.50;77.50;;;;;;7410511;19;19981;-78
2023/07/18 08:22:00;;;;;;;14.50;6.10;;;29.70;76.40;;;;;;7409970;19;19915;-78
2023/07/18 08:24:26;;;;;;;18.55;7.32;;;29.70;76.20;;;;;;7406551;19;19922;-80
2023/07/18 08:26:52;;;;;;;21.30;7.18;;;29.80;75.70;;;;;;7414315;19;19926;-78
2023/07/18 08:29:18;;;;;;;20.40;7.05;;;29.90;75.40;;;;;;7405337;19;20323;-78
2023/07/18 08:31:44;;;;;;;19.00;6.80;;;30.10;74.80;;;;;;7409803;19;19918;-78
2023/07/18 08:34:10;;;;;;;19.60;6.55;;;30.10;74.30;;;;;;7408881;19;20339;-78
2023/07/18 08:36:36;;;;;;;;;;;30.30;73.70;;;;;;7413500;19;20692;-78
2023/07/18 08:39:03;;;;;;;14.27;7.00;;;30.40;72.80;;;;;;7410845;19;19915;-78
2023/07/18 08:41:30;;;;;;;18.15;6.57;;;30.40;72.60;;;;;;7409499;19;20026;-78
2023/07/18 08:43:58;;;;;;;14.48;6.72;;;30.50;72.00;;;;;;7413392;19;19979;-77
2023/07/18 08:46:25;;;;;;;17.65;5.82;;;30.60;71.60;;;;;;7408303;19;20381;-77
2023/07/18 08:48:54;;;;;;;19.63;6.05;;;30.70;71.20;;;;;;7410234;19;19922;-77
2023/07/18 08:51:21;;;;;;;16.13;6.30;;;30.90;70.50;;;;;;7408081;19;19915;-77
2023/07/18 08:53:47;;;;;;;17.33;6.40;;;30.90;70.10;;;;;;7409557;19;20461;-78
2023/07/18 08:56:13;;;;;;;18.05;6.60;;;31.20;69.60;;;;;;7411949;19;19918;-78
2023/07/18 08:58:39;;;;;;;18.10;6.30;;;31.30;69.20;;;;;;7413456;19;21033;-77
2023/07/18 09:01:06;;;;;;;16.42;7.25;;;31.40;68.70;;;;;;7412698;19;19952;-77
2023/07/18 09:03:32;;;;;;;14.15;6.38;;;31.50;68.70;;;;;;7413823;19;19932;-78
2023/07/18 09:06:17;;;;;;;19.75;7.00;;;31.60;68.30;;;;;;7409553;19;19922;-77
2023/07/18 09:08:43;;;;;;;21.85;7.07;;;31.80;67.40;;;;;;7409730;19;19974;-77
2023/07/18 09:11:12;;;;;;;18.40;6.22;;;31.90;67.00;;;;;;7408227;19;19925;-78
2023/07/18 09:13:40;;;;;;;16.13;7.00;;;32.00;66.90;;;;;;7409306;19;19914;-78
2023/07/18 09:16:13;;;;;;;21.60;7.22;;;32.00;66.00;;;;;;7406638;19;19929;-77
2023/07/18 09:18:53;;;;;;;16.92;6.50;;;32.20;65.90;;;;;;7407585;19;19911;-78
2023/07/18 09:21:20;;;;;;;21.15;7.78;;;32.30;65.30;;;;;;7404304;19;19926;-76
2023/07/18 09:23:47;;;;;;;18.45;7.03;;;32.40;64.70;;;;;;7407182;19;19951;-78
2023/07/18 09:26:15;;;;;;;21.83;8.02;;;32.50;64.20;;;;;;7405177;19;19929;-77
2023/07/18 09:28:41;;;;;;;18.30;6.78;;;32.70;64.00;;;;;;7408097;19;19915;-76
2023/07/18 09:31:19;;;;;;;18.95;6.85;;;32.80;62.60;;;;;;7405040;19;20355;-76
2023/07/18 09:33:49;;;;;;;21.00;7.43;;;33.00;62.00;;;;;;7408414;19;19919;-76
2023/07/18 09:36:18;;;;;;;18.10;7.22;;;32.90;60.70;;;;;;7405095;19;21682;-77
2023/07/18 09:38:46;;;;;;;14.75;6.63;;;33.20;60.30;;;;;;7403334;19;20021;-77
2023/07/18 09:41:18;;;;;;;17.95;6.07;;;33.30;58.80;;;;;;7407106;19;19994;-78
2023/07/18 09:43:45;;;;;;;19.38;5.85;;;33.40;57.50;;;;;;7407199;19;19907;-76
2023/07/18 09:46:17;;;;;;;20.95;6.40;;;33.40;55.90;;;;;;7404545;19;19958;-76
2023/07/18 09:48:45;;;;;;;18.90;6.03;;;33.60;55.60;;;;;;7407837;19;19918;-76
2023/07/18 09:51:15;;;;;;;15.90;6.07;;;33.70;54.80;;;;;;7406034;19;19982;-77
2023/07/18 09:53:45;;;;;;;17.65;6.03;;;33.80;54.60;;;;;;7405227;19;19918;-77
2023/07/18 09:56:14;;;;;;;18.95;6.03;;;34.00;54.00;;;;;;7403332;19;19914;-77
2023/07/18 09:58:42;;;;;;;17.35;6.20;;;34.10;52.80;;;;;;7406093;19;19911;-77
2023/07/18 10:01:19;;;;;;;17.33;6.60;;;34.30;52.40;;;;;;7405564;19;20394;-76
2023/07/18 10:03:46;;;;;;;17.17;6.30;;;34.40;51.80;;;;;;7403904;19;19974;-77
2023/07/18 10:06:13;;;;;;;20.92;7.18;;;34.60;50.90;;;;;;7400589;19;19966;-77
2023/07/18 10:08:41;;;;;;;20.27;7.13;;;34.50;50.70;;;;;;7404294;19;19926;-77
2023/07/18 10:11:08;;;;;;;15.57;6.82;;;34.60;50.60;;;;;;7403484;19;19918;-77
2023/07/18 10:13:56;;;;;;;17.42;8.52;;;34.60;50.50;;;;;;7408581;19;20243;-76
2023/07/18 10:16:22;;;;;;;16.80;6.82;;;34.60;49.50;;;;;;7404867;19;19926;-76
2023/07/18 10:18:52;;;;;;;18.77;7.13;;;34.80;50.40;;;;;;7406381;19;19929;-77
2023/07/18 10:21:36;;;;;;;18.83;5.97;;;34.60;53.00;;;;;;7370981;19;19915;-77
2023/07/18 10:24:21;;;;;;;21.52;7.20;;;34.60;56.60;;;;;;7404547;19;20275;-76
2023/07/18 10:27:07;;;;;;;14.98;6.03;;;34.30;60.20;;;;;;7406693;19;19922;-76
2023/07/18 10:29:38;;;;;;;12.32;5.28;;;33.70;63.20;;;;;;7403708;19;19914;-77
2023/07/18 10:32:05;;;;;;;18.50;5.18;;;33.20;65.10;;;;;;7405117;19;19922;-76
2023/07/18 10:34:39;;;;;;;14.63;5.05;;;32.80;65.80;;;;;;7401702;19;19942;-77
2023/07/18 10:37:08;;;;;;;15.23;5.00;;;33.00;66.00;;;;;;7400151;19;19922;-76
2023/07/18 10:39:39;;;;;;;21.55;5.82;;;33.10;66.10;;;;;;7404314;19;19925;-77
2023/07/18 10:42:15;;;;;;;17.33;6.10;;;33.40;65.30;;;;;;7401878;19;19930;-77
2023/07/18 10:44:43;;;;;;;11.20;5.43;;;33.10;66.00;;;;;;7404109;19;19922;-74
2023/07/18 10:47:13;;;;;;;15.18;6.07;;;33.00;66.40;;;;;;7400931;19;19923;-75
2023/07/18 10:49:39;;;;;;;13.65;6.65;;;32.80;67.30;;;;;;7403181;19;19922;-75
2023/07/18 10:52:05;;;;;;;;;;;32.80;67.10;;;;;;7405139;19;20018;-75
2023/07/18 10:54:31;;;;;;;16.05;5.90;;;32.60;66.60;;;;;;7399431;19;19927;-75
2023/07/18 10:56:58;;;;;;;;;;;32.50;67.40;;;;;;7383745;19;19988;-76
2023/07/18 10:59:24;;;;;;;19.63;6.35;;;32.30;67.60;;;;;;7399422;19;19964;-75
2023/07/18 11:01:50;;;;;;;;;;;32.40;67.80;;;;;;7405130;19;19949;-75
2023/07/18 11:04:16;;;;;;;15.75;6.22;;;32.60;67.70;;;;;;7402325;19;19938;-75
2023/07/18 11:06:48;;;;;;;;;;;32.50;68.00;;;;;;7406728;19;19917;-75
2023/07/18 11:09:13;;;;;;;17.70;6.82;;;32.80;67.80;;;;;;7399177;19;19914;-75
2023/07/18 11:11:39;;;;;;;;;;;33.20;67.50;;;;;;7406745;19;19947;-75
2023/07/18 11:14:05;;;;;;;16.92;5.88;;;33.20;67.50;;;;;;7400419;19;19922;-75
2023/07/18 11:16:31;;;;;;;15.15;6.10;;;33.50;67.00;;;;;;7403046;19;19935;-75
2023/07/18 11:18:59;;;;;;;;;;;33.40;67.10;;;;;;7403510;19;19918;-75
2023/07/18 11:21:26;;;;;;;13.30;5.60;;;33.50;66.20;;;;;;7400420;19;19919;-75
2023/07/18 11:23:53;;;;;;;20.48;7.10;;;33.50;66.70;;;;;;7400519;19;19960;-75
2023/07/18 11:26:19;;;;;;;16.63;7.30;;;33.90;65.90;;;;;;7398988;19;19994;-75
2023/07/18 11:28:57;;;;;;;13.98;5.97;;;33.90;65.40;;;;;;7404871;19;19919;-76
2023/07/18 11:31:26;;;;;;;;;;;32.90;67.40;;;;;;7401571;19;20266;-75
2023/07/18 11:33:53;;;;;;;12.63;5.80;;;33.20;67.30;;;;;;7398118;19;20361;-76
2023/07/18 11:36:20;;;;;;;14.00;6.78;;;33.50;66.60;;;;;;7397895;19;20334;-76
2023/07/18 11:38:50;;;;;;;14.30;5.65;;;34.00;65.50;;;;;;7399836;19;19926;-75
2023/07/18 11:41:36;;;;;;;17.08;6.38;;;34.20;64.70;;;;;;7368997;19;20334;-75
2023/07/18 11:44:04;;;;;;;17.50;6.32;;;34.40;63.60;;;;;;7402235;19;19919;-75
2023/07/18 11:46:43;;;;;;;15.98;6.00;;;34.50;63.50;;;;;;7400344;19;19926;-74
2023/07/18 11:49:12;;;;;;;16.63;6.15;;;34.50;63.10;;;;;;7404084;19;19947;-75
2023/07/18 11:51:43;;;;;;;14.77;5.88;;;34.30;63.40;;;;;;7407953;19;19957;-75
2023/07/18 11:54:09;;;;;;;13.80;6.57;;;34.50;62.90;;;;;;7405235;19;19915;-75
2023/07/18 11:56:37;;;;;;;15.45;6.47;;;34.40;62.70;;;;;;7405218;19;19925;-75
2023/07/18 11:59:03;;;;;;;13.50;6.53;;;34.00;63.50;;;;;;7406594;19;19950;-75
2023/07/18 12:01:31;;;;;;;13.15;5.80;;;33.60;64.70;;;;;;7407532;19;19918;-76
2023/07/18 12:03:56;;;;;;;13.00;6.30;;;33.60;64.20;;;;;;7406215;19;20339;-75
2023/07/18 12:06:22;;;;;;;12.63;5.68;;;33.60;64.30;;;;;;7406732;19;19949;-76
2023/07/18 12:08:49;;;;;;;14.20;6.18;;;33.30;64.90;;;;;;7375402;19;19918;-75
2023/07/18 12:11:16;;;;;;;15.35;5.90;;;33.50;65.00;;;;;;7402437;19;19922;-75
2023/07/18 12:13:44;;;;;;;16.00;6.13;;;33.70;64.70;;;;;;7407733;19;20345;-75
2023/07/18 12:16:09;;;;;;;14.63;5.72;;;33.50;64.00;;;;;;7406171;19;19918;-75
2023/07/18 12:18:38;;;;;;;12.27;6.22;;;34.00;63.70;;;;;;7408745;19;19921;-75
2023/07/18 12:21:03;;;;;;;12.10;5.93;;;33.80;64.20;;;;;;7405203;19;20328;-74
2023/07/18 12:23:29;;;;;;;15.55;5.68;;;33.80;64.50;;;;;;7408416;19;19938;-75
2023/07/18 12:25:55;;;;;;;12.55;5.57;;;33.90;63.80;;;;;;7404708;19;19919;-75
2023/07/18 12:28:21;;;;;;;13.02;6.03;;;33.90;63.40;;;;;;7406281;19;19921;-75
2023/07/18 12:30:47;;;;;;;14.45;5.40;;;33.40;65.20;;;;;;7407623;19;19911;-76
2023/07/18 12:33:14;;;;;;;14.35;5.90;;;33.30;65.00;;;;;;7404044;19;20204;-76
2023/07/18 12:35:40;;;;;;;11.68;6.10;;;33.10;65.50;;;;;;7403752;19;19932;-77
2023/07/18 12:38:06;;;;;;;10.48;5.85;;;33.00;66.10;;;;;;7405718;19;19914;-76
2023/07/18 12:40:32;;;;;;;13.20;6.57;;;33.40;65.10;;;;;;7406963;19;19910;-76